< Typhoon 195311 1953 Season Typhoon 195313 >
Typhoon 195312 (SUSAN)
General InformationTrack Information on Google Maps || NewsDisaster Info.ResourceGoogle EarthGE AnimationAtom FeedGeoJSON
Detalied Best Track (Time Zone = UTC)
Year Month Day Hour Lat. Long. Pressure (hPa) Wind (kt) Class Image Chart
1953 9 13 18 17.0 124.5 1006 0 2 -- Chart
1953 9 14 00 17.5 124.2 1008 0 2 -- Chart
1953 9 14 06 18.6 123.1 1006 0 2 -- Chart
1953 9 14 12 19.0 121.8 1008 0 2 -- Chart
1953 9 14 18 19.5 121.0 1006 0 2 -- Chart
1953 9 15 00 20.0 120.0 1004 0 2 -- Chart
1953 9 15 06 20.0 119.6 1000 0 2 -- Chart
1953 9 15 12 20.0 119.1 1000 0 2 -- Chart
1953 9 15 18 20.0 118.5 1000 0 2 -- Chart
1953 9 16 00 20.1 118.0 970 0 9 -- Chart
1953 9 16 06 20.2 117.5 970 0 9 -- Chart
1953 9 16 12 20.3 117.0 970 0 9 -- Chart
1953 9 16 18 20.5 116.7 970 0 9 -- Chart
1953 9 17 00 21.0 116.5 970 0 9 -- Chart
1953 9 17 06 21.4 116.3 970 0 9 -- Chart
1953 9 17 12 21.7 115.9 970 0 9 -- Chart
1953 9 17 18 21.9 115.5 970 0 9 -- Chart
1953 9 18 00 22.0 115.0 980 0 9 -- Chart
1953 9 18 06 21.9 114.5 980 0 9 -- Chart
1953 9 18 12 21.8 114.0 980 0 9 -- Chart
1953 9 18 18 21.6 113.6 980 0 9 -- Chart
1953 9 19 00 21.5 113.2 990 0 9 -- Chart
1953 9 19 06 21.4 112.0 992 0 9 -- Chart
1953 9 19 12 21.4 111.0 996 0 9 -- Chart
1953 9 19 18 21.4 109.9 1000 0 9 -- Chart
1953 9 20 00 21.5 108.5 1002 0 2 -- Chart
1953 9 20 06 20.0 106.5 1002 0 2 -- Chart
Japan Meteorological Agency Best Track Data | Correction Date : 1989-06-01
< Typhoon 195311 1953 Season Typhoon 195313 >

Help